sensor_id;sensor_type;location;lat;lon;timestamp;P1;durP1;ratioP1;P2;durP2;ratioP2
15385;SDS011;7791;47.246;9.648;2023-09-07T00:00:49;8.60;;;7.13;;
15385;SDS011;7791;47.246;9.648;2023-09-07T00:03:15;12.43;;;7.73;;
15385;SDS011;7791;47.246;9.648;2023-09-07T00:05:40;9.03;;;7.87;;
15385;SDS011;7791;47.246;9.648;2023-09-07T00:08:06;12.47;;;8.27;;
15385;SDS011;7791;47.246;9.648;2023-09-07T00:10:32;9.97;;;7.30;;
15385;SDS011;7791;47.246;9.648;2023-09-07T00:12:58;9.23;;;6.97;;
15385;SDS011;7791;47.246;9.648;2023-09-07T00:15:26;8.90;;;7.73;;
15385;SDS011;7791;47.246;9.648;2023-09-07T00:17:51;10.23;;;7.80;;
15385;SDS011;7791;47.246;9.648;2023-09-07T00:20:17;9.87;;;7.17;;
15385;SDS011;7791;47.246;9.648;2023-09-07T00:22:43;10.63;;;7.83;;
15385;SDS011;7791;47.246;9.648;2023-09-07T00:25:08;10.33;;;7.20;;
15385;SDS011;7791;47.246;9.648;2023-09-07T00:27:34;12.00;;;7.73;;
15385;SDS011;7791;47.246;9.648;2023-09-07T00:30:00;10.83;;;8.13;;
15385;SDS011;7791;47.246;9.648;2023-09-07T00:32:27;11.90;;;8.30;;
15385;SDS011;7791;47.246;9.648;2023-09-07T00:34:53;10.33;;;8.03;;
15385;SDS011;7791;47.246;9.648;2023-09-07T00:37:18;13.00;;;7.93;;
15385;SDS011;7791;47.246;9.648;2023-09-07T00:39:44;12.73;;;8.13;;
15385;SDS011;7791;47.246;9.648;2023-09-07T00:42:10;11.40;;;8.27;;
15385;SDS011;7791;47.246;9.648;2023-09-07T00:44:35;12.63;;;7.53;;
15385;SDS011;7791;47.246;9.648;2023-09-07T00:47:01;9.93;;;7.13;;
15385;SDS011;7791;47.246;9.648;2023-09-07T00:49:28;12.60;;;7.13;;
15385;SDS011;7791;47.246;9.648;2023-09-07T00:51:54;9.90;;;7.63;;
15385;SDS011;7791;47.246;9.648;2023-09-07T00:54:20;14.23;;;8.10;;
15385;SDS011;7791;47.246;9.648;2023-09-07T00:56:46;10.17;;;7.27;;
15385;SDS011;7791;47.246;9.648;2023-09-07T00:59:11;9.00;;;7.40;;
15385;SDS011;7791;47.246;9.648;2023-09-07T01:01:38;8.73;;;7.40;;
15385;SDS011;7791;47.246;9.648;2023-09-07T01:04:04;9.27;;;7.97;;
15385;SDS011;7791;47.246;9.648;2023-09-07T01:06:32;12.13;;;7.73;;
15385;SDS011;7791;47.246;9.648;2023-09-07T01:09:03;9.07;;;7.07;;
15385;SDS011;7791;47.246;9.648;2023-09-07T01:11:35;9.50;;;7.17;;
15385;SDS011;7791;47.246;9.648;2023-09-07T01:14:01;11.63;;;7.40;;
15385;SDS011;7791;47.246;9.648;2023-09-07T01:16:27;11.13;;;7.67;;
15385;SDS011;7791;47.246;9.648;2023-09-07T01:18:53;11.93;;;7.50;;
15385;SDS011;7791;47.246;9.648;2023-09-07T01:21:18;12.40;;;8.07;;
15385;SDS011;7791;47.246;9.648;2023-09-07T01:23:47;9.50;;;7.40;;
15385;SDS011;7791;47.246;9.648;2023-09-07T01:26:13;10.63;;;7.60;;
15385;SDS011;7791;47.246;9.648;2023-09-07T01:28:39;9.90;;;7.33;;
15385;SDS011;7791;47.246;9.648;2023-09-07T01:31:05;10.77;;;8.33;;
15385;SDS011;7791;47.246;9.648;2023-09-07T01:33:31;9.80;;;7.17;;
15385;SDS011;7791;47.246;9.648;2023-09-07T01:35:56;9.37;;;7.97;;
15385;SDS011;7791;47.246;9.648;2023-09-07T01:38:22;12.23;;;8.00;;
15385;SDS011;7791;47.246;9.648;2023-09-07T01:40:49;8.90;;;7.87;;
15385;SDS011;7791;47.246;9.648;2023-09-07T01:43:15;11.47;;;8.40;;
15385;SDS011;7791;47.246;9.648;2023-09-07T01:45:41;10.60;;;8.23;;
15385;SDS011;7791;47.246;9.648;2023-09-07T01:48:08;11.30;;;8.80;;
15385;SDS011;7791;47.246;9.648;2023-09-07T01:50:34;15.10;;;8.97;;
15385;SDS011;7791;47.246;9.648;2023-09-07T01:52:59;11.63;;;8.57;;
15385;SDS011;7791;47.246;9.648;2023-09-07T01:55:26;11.43;;;8.67;;
15385;SDS011;7791;47.246;9.648;2023-09-07T01:57:53;10.93;;;8.73;;
15385;SDS011;7791;47.246;9.648;2023-09-07T02:00:19;11.07;;;8.57;;
15385;SDS011;7791;47.246;9.648;2023-09-07T02:02:45;10.93;;;8.90;;
15385;SDS011;7791;47.246;9.648;2023-09-07T02:05:10;11.53;;;9.03;;
15385;SDS011;7791;47.246;9.648;2023-09-07T02:07:36;11.57;;;9.23;;
15385;SDS011;7791;47.246;9.648;2023-09-07T02:10:02;13.53;;;9.33;;
15385;SDS011;7791;47.246;9.648;2023-09-07T02:12:28;11.60;;;8.73;;
15385;SDS011;7791;47.246;9.648;2023-09-07T02:14:55;11.10;;;8.90;;
15385;SDS011;7791;47.246;9.648;2023-09-07T02:17:21;11.27;;;8.77;;
15385;SDS011;7791;47.246;9.648;2023-09-07T02:19:46;13.40;;;9.10;;
15385;SDS011;7791;47.246;9.648;2023-09-07T02:22:12;12.17;;;8.70;;
15385;SDS011;7791;47.246;9.648;2023-09-07T02:24:38;13.30;;;8.47;;
15385;SDS011;7791;47.246;9.648;2023-09-07T02:27:03;12.77;;;8.27;;
15385;SDS011;7791;47.246;9.648;2023-09-07T02:29:29;13.13;;;9.37;;
15385;SDS011;7791;47.246;9.648;2023-09-07T02:31:56;10.37;;;8.57;;
15385;SDS011;7791;47.246;9.648;2023-09-07T02:34:22;12.60;;;9.30;;
15385;SDS011;7791;47.246;9.648;2023-09-07T02:36:47;11.83;;;8.87;;
15385;SDS011;7791;47.246;9.648;2023-09-07T02:39:13;11.07;;;8.30;;
15385;SDS011;7791;47.246;9.648;2023-09-07T02:41:39;13.77;;;9.33;;
15385;SDS011;7791;47.246;9.648;2023-09-07T02:44:05;11.67;;;9.43;;
15385;SDS011;7791;47.246;9.648;2023-09-07T02:46:30;13.73;;;10.00;;
15385;SDS011;7791;47.246;9.648;2023-09-07T02:48:58;18.13;;;10.67;;
15385;SDS011;7791;47.246;9.648;2023-09-07T02:51:23;16.43;;;12.10;;
15385;SDS011;7791;47.246;9.648;2023-09-07T02:53:49;13.77;;;9.93;;
15385;SDS011;7791;47.246;9.648;2023-09-07T02:56:15;13.30;;;9.47;;
15385;SDS011;7791;47.246;9.648;2023-09-07T02:58:41;12.13;;;9.30;;
15385;SDS011;7791;47.246;9.648;2023-09-07T03:01:06;13.80;;;9.63;;
15385;SDS011;7791;47.246;9.648;2023-09-07T03:03:32;13.67;;;9.87;;
15385;SDS011;7791;47.246;9.648;2023-09-07T03:06:07;12.07;;;10.30;;
15385;SDS011;7791;47.246;9.648;2023-09-07T03:08:33;13.67;;;10.13;;
15385;SDS011;7791;47.246;9.648;2023-09-07T03:10:58;13.90;;;9.87;;
15385;SDS011;7791;47.246;9.648;2023-09-07T03:13:28;14.43;;;10.03;;
15385;SDS011;7791;47.246;9.648;2023-09-07T03:15:53;14.80;;;10.27;;
15385;SDS011;7791;47.246;9.648;2023-09-07T03:18:19;13.80;;;10.73;;
15385;SDS011;7791;47.246;9.648;2023-09-07T03:20:45;17.47;;;11.27;;
15385;SDS011;7791;47.246;9.648;2023-09-07T03:23:12;15.80;;;10.93;;
15385;SDS011;7791;47.246;9.648;2023-09-07T03:25:37;14.17;;;10.20;;
15385;SDS011;7791;47.246;9.648;2023-09-07T03:28:03;18.80;;;11.53;;
15385;SDS011;7791;47.246;9.648;2023-09-07T03:30:29;13.60;;;10.97;;
15385;SDS011;7791;47.246;9.648;2023-09-07T03:32:55;16.67;;;11.03;;
15385;SDS011;7791;47.246;9.648;2023-09-07T03:35:21;15.23;;;10.73;;
15385;SDS011;7791;47.246;9.648;2023-09-07T03:37:46;13.40;;;10.70;;
15385;SDS011;7791;47.246;9.648;2023-09-07T03:40:14;12.67;;;10.20;;
15385;SDS011;7791;47.246;9.648;2023-09-07T03:42:40;15.20;;;10.90;;
15385;SDS011;7791;47.246;9.648;2023-09-07T03:45:06;15.03;;;10.07;;
15385;SDS011;7791;47.246;9.648;2023-09-07T03:47:32;14.90;;;10.80;;
15385;SDS011;7791;47.246;9.648;2023-09-07T03:49:57;16.87;;;11.63;;
15385;SDS011;7791;47.246;9.648;2023-09-07T03:52:23;15.97;;;11.30;;
15385;SDS011;7791;47.246;9.648;2023-09-07T03:54:49;15.10;;;11.17;;
15385;SDS011;7791;47.246;9.648;2023-09-07T03:57:16;16.50;;;10.60;;
15385;SDS011;7791;47.246;9.648;2023-09-07T03:59:42;16.27;;;10.77;;
15385;SDS011;7791;47.246;9.648;2023-09-07T04:02:07;13.67;;;10.20;;
15385;SDS011;7791;47.246;9.648;2023-09-07T04:04:33;12.70;;;10.10;;
15385;SDS011;7791;47.246;9.648;2023-09-07T04:06:59;13.10;;;10.23;;
15385;SDS011;7791;47.246;9.648;2023-09-07T04:09:24;15.73;;;10.93;;
15385;SDS011;7791;47.246;9.648;2023-09-07T04:11:50;15.53;;;10.37;;
15385;SDS011;7791;47.246;9.648;2023-09-07T04:14:17;17.07;;;10.67;;
15385;SDS011;7791;47.246;9.648;2023-09-07T04:16:42;20.10;;;11.20;;
15385;SDS011;7791;47.246;9.648;2023-09-07T04:19:08;16.97;;;10.77;;
15385;SDS011;7791;47.246;9.648;2023-09-07T04:21:35;14.33;;;11.20;;
15385;SDS011;7791;47.246;9.648;2023-09-07T04:24:01;14.93;;;11.30;;
15385;SDS011;7791;47.246;9.648;2023-09-07T04:26:26;14.27;;;9.97;;
15385;SDS011;7791;47.246;9.648;2023-09-07T04:28:52;13.93;;;10.67;;
15385;SDS011;7791;47.246;9.648;2023-09-07T04:31:19;16.47;;;10.83;;
15385;SDS011;7791;47.246;9.648;2023-09-07T04:33:45;15.90;;;10.17;;
15385;SDS011;7791;47.246;9.648;2023-09-07T04:36:11;14.10;;;10.20;;
15385;SDS011;7791;47.246;9.648;2023-09-07T04:38:38;17.40;;;10.87;;
15385;SDS011;7791;47.246;9.648;2023-09-07T04:41:07;14.50;;;9.60;;
15385;SDS011;7791;47.246;9.648;2023-09-07T04:43:33;14.03;;;9.13;;
15385;SDS011;7791;47.246;9.648;2023-09-07T04:45:59;13.07;;;9.83;;
15385;SDS011;7791;47.246;9.648;2023-09-07T04:48:26;17.43;;;10.70;;
15385;SDS011;7791;47.246;9.648;2023-09-07T04:50:57;17.43;;;10.70;;
15385;SDS011;7791;47.246;9.648;2023-09-07T04:53:23;15.10;;;10.47;;
15385;SDS011;7791;47.246;9.648;2023-09-07T04:55:48;14.33;;;11.33;;
15385;SDS011;7791;47.246;9.648;2023-09-07T04:58:14;18.23;;;11.17;;
15385;SDS011;7791;47.246;9.648;2023-09-07T05:00:40;15.77;;;12.00;;
15385;SDS011;7791;47.246;9.648;2023-09-07T05:03:05;13.90;;;10.90;;
15385;SDS011;7791;47.246;9.648;2023-09-07T05:05:32;16.37;;;10.90;;
15385;SDS011;7791;47.246;9.648;2023-09-07T05:07:58;15.60;;;10.47;;
15385;SDS011;7791;47.246;9.648;2023-09-07T05:10:24;14.27;;;11.10;;
15385;SDS011;7791;47.246;9.648;2023-09-07T05:12:49;14.43;;;10.67;;
15385;SDS011;7791;47.246;9.648;2023-09-07T05:15:15;17.40;;;10.67;;
15385;SDS011;7791;47.246;9.648;2023-09-07T05:17:41;17.53;;;12.13;;
15385;SDS011;7791;47.246;9.648;2023-09-07T05:20:07;15.00;;;10.83;;
15385;SDS011;7791;47.246;9.648;2023-09-07T05:22:35;13.67;;;10.27;;
15385;SDS011;7791;47.246;9.648;2023-09-07T05:25:00;15.27;;;10.87;;
15385;SDS011;7791;47.246;9.648;2023-09-07T05:27:26;17.83;;;12.27;;
15385;SDS011;7791;47.246;9.648;2023-09-07T05:29:52;18.50;;;10.80;;
15385;SDS011;7791;47.246;9.648;2023-09-07T05:32:17;16.97;;;11.20;;
15385;SDS011;7791;47.246;9.648;2023-09-07T05:34:43;20.53;;;11.50;;
15385;SDS011;7791;47.246;9.648;2023-09-07T05:37:08;13.83;;;10.60;;
15385;SDS011;7791;47.246;9.648;2023-09-07T05:39:36;20.10;;;12.30;;
15385;SDS011;7791;47.246;9.648;2023-09-07T05:42:01;21.47;;;14.03;;
15385;SDS011;7791;47.246;9.648;2023-09-07T05:44:27;14.97;;;10.73;;
15385;SDS011;7791;47.246;9.648;2023-09-07T05:46:53;11.97;;;9.63;;
15385;SDS011;7791;47.246;9.648;2023-09-07T05:49:18;16.13;;;9.87;;
15385;SDS011;7791;47.246;9.648;2023-09-07T05:51:44;17.60;;;9.97;;
15385;SDS011;7791;47.246;9.648;2023-09-07T05:54:10;12.87;;;7.93;;
15385;SDS011;7791;47.246;9.648;2023-09-07T05:56:37;10.77;;;8.63;;
15385;SDS011;7791;47.246;9.648;2023-09-07T05:59:02;15.73;;;9.90;;
15385;SDS011;7791;47.246;9.648;2023-09-07T06:01:28;16.00;;;11.80;;
15385;SDS011;7791;47.246;9.648;2023-09-07T06:03:54;14.47;;;10.53;;
15385;SDS011;7791;47.246;9.648;2023-09-07T06:06:19;12.63;;;9.67;;
15385;SDS011;7791;47.246;9.648;2023-09-07T06:08:45;16.00;;;9.43;;
15385;SDS011;7791;47.246;9.648;2023-09-07T06:11:11;15.63;;;9.63;;
15385;SDS011;7791;47.246;9.648;2023-09-07T06:13:38;18.13;;;11.23;;
15385;SDS011;7791;47.246;9.648;2023-09-07T06:16:04;15.10;;;11.57;;
15385;SDS011;7791;47.246;9.648;2023-09-07T06:18:29;16.90;;;12.77;;
15385;SDS011;7791;47.246;9.648;2023-09-07T06:20:55;17.47;;;11.77;;
15385;SDS011;7791;47.246;9.648;2023-09-07T06:23:21;18.90;;;11.63;;
15385;SDS011;7791;47.246;9.648;2023-09-07T06:25:46;15.40;;;11.80;;
15385;SDS011;7791;47.246;9.648;2023-09-07T06:28:12;15.27;;;10.93;;
15385;SDS011;7791;47.246;9.648;2023-09-07T06:30:39;17.67;;;10.73;;
15385;SDS011;7791;47.246;9.648;2023-09-07T06:33:05;17.37;;;11.37;;
15385;SDS011;7791;47.246;9.648;2023-09-07T06:35:30;18.30;;;11.07;;
15385;SDS011;7791;47.246;9.648;2023-09-07T06:37:56;18.30;;;11.33;;
15385;SDS011;7791;47.246;9.648;2023-09-07T06:40:22;17.13;;;11.33;;
15385;SDS011;7791;47.246;9.648;2023-09-07T06:42:48;20.20;;;12.97;;
15385;SDS011;7791;47.246;9.648;2023-09-07T06:45:13;15.90;;;12.37;;
15385;SDS011;7791;47.246;9.648;2023-09-07T06:47:40;18.37;;;12.67;;
15385;SDS011;7791;47.246;9.648;2023-09-07T06:50:06;16.03;;;11.80;;
15385;SDS011;7791;47.246;9.648;2023-09-07T06:52:32;10.97;;;8.27;;
15385;SDS011;7791;47.246;9.648;2023-09-07T06:54:58;10.30;;;6.73;;
15385;SDS011;7791;47.246;9.648;2023-09-07T06:57:23;8.33;;;5.57;;
15385;SDS011;7791;47.246;9.648;2023-09-07T06:59:49;8.77;;;5.13;;
15385;SDS011;7791;47.246;9.648;2023-09-07T07:02:15;8.30;;;4.93;;
15385;SDS011;7791;47.246;9.648;2023-09-07T07:04:42;6.25;;;4.72;;
15385;SDS011;7791;47.246;9.648;2023-09-07T07:07:07;9.32;;;4.75;;
15385;SDS011;7791;47.246;9.648;2023-09-07T07:09:33;11.20;;;4.85;;
15385;SDS011;7791;47.246;9.648;2023-09-07T07:11:59;4.97;;;3.90;;
15385;SDS011;7791;47.246;9.648;2023-09-07T07:14:25;11.43;;;3.85;;
15385;SDS011;7791;47.246;9.648;2023-09-07T07:16:51;7.53;;;4.40;;
15385;SDS011;7791;47.246;9.648;2023-09-07T07:19:16;5.78;;;3.92;;
15385;SDS011;7791;47.246;9.648;2023-09-07T07:21:44;5.30;;;4.03;;
15385;SDS011;7791;47.246;9.648;2023-09-07T07:24:09;8.25;;;4.70;;
15385;SDS011;7791;47.246;9.648;2023-09-07T07:26:35;7.93;;;4.47;;
15385;SDS011;7791;47.246;9.648;2023-09-07T07:29:01;7.07;;;4.22;;
15385;SDS011;7791;47.246;9.648;2023-09-07T07:31:29;5.80;;;4.20;;
15385;SDS011;7791;47.246;9.648;2023-09-07T07:33:55;5.85;;;3.60;;
15385;SDS011;7791;47.246;9.648;2023-09-07T07:36:20;5.35;;;3.92;;
15385;SDS011;7791;47.246;9.648;2023-09-07T07:38:47;5.95;;;3.78;;
15385;SDS011;7791;47.246;9.648;2023-09-07T07:41:13;6.40;;;4.25;;
15385;SDS011;7791;47.246;9.648;2023-09-07T07:43:39;8.40;;;3.70;;
15385;SDS011;7791;47.246;9.648;2023-09-07T07:46:04;5.18;;;3.70;;
15385;SDS011;7791;47.246;9.648;2023-09-07T07:48:30;6.93;;;3.80;;
15385;SDS011;7791;47.246;9.648;2023-09-07T07:50:56;5.90;;;3.72;;
15385;SDS011;7791;47.246;9.648;2023-09-07T07:53:22;4.68;;;3.67;;
15385;SDS011;7791;47.246;9.648;2023-09-07T07:55:49;5.50;;;3.55;;
15385;SDS011;7791;47.246;9.648;2023-09-07T07:58:14;4.88;;;3.60;;
15385;SDS011;7791;47.246;9.648;2023-09-07T08:00:40;6.82;;;3.90;;
15385;SDS011;7791;47.246;9.648;2023-09-07T08:03:06;3.42;;;2.95;;
15385;SDS011;7791;47.246;9.648;2023-09-07T08:05:31;4.28;;;3.50;;
15385;SDS011;7791;47.246;9.648;2023-09-07T08:07:58;7.38;;;3.60;;
15385;SDS011;7791;47.246;9.648;2023-09-07T08:10:24;3.40;;;3.10;;
15385;SDS011;7791;47.246;9.648;2023-09-07T08:12:52;15.35;;;3.92;;
15385;SDS011;7791;47.246;9.648;2023-09-07T08:15:19;5.70;;;3.72;;
15385;SDS011;7791;47.246;9.648;2023-09-07T08:17:44;3.53;;;3.08;;
15385;SDS011;7791;47.246;9.648;2023-09-07T08:20:10;3.72;;;3.35;;
15385;SDS011;7791;47.246;9.648;2023-09-07T08:22:36;8.23;;;3.70;;
15385;SDS011;7791;47.246;9.648;2023-09-07T08:25:01;3.85;;;3.45;;
15385;SDS011;7791;47.246;9.648;2023-09-07T08:27:27;8.13;;;3.40;;
15385;SDS011;7791;47.246;9.648;2023-09-07T08:29:54;9.18;;;3.67;;
15385;SDS011;7791;47.246;9.648;2023-09-07T08:32:20;10.68;;;3.78;;
15385;SDS011;7791;47.246;9.648;2023-09-07T08:34:46;5.28;;;4.00;;
15385;SDS011;7791;47.246;9.648;2023-09-07T08:37:11;7.07;;;4.10;;
15385;SDS011;7791;47.246;9.648;2023-09-07T08:39:37;9.18;;;4.28;;
15385;SDS011;7791;47.246;9.648;2023-09-07T08:42:03;10.30;;;4.20;;
15385;SDS011;7791;47.246;9.648;2023-09-07T08:44:29;5.35;;;4.20;;
15385;SDS011;7791;47.246;9.648;2023-09-07T08:47:00;9.70;;;4.63;;
15385;SDS011;7791;47.246;9.648;2023-09-07T08:49:27;8.55;;;4.30;;
15385;SDS011;7791;47.246;9.648;2023-09-07T08:51:57;7.68;;;4.60;;
15385;SDS011;7791;47.246;9.648;2023-09-07T08:54:24;6.28;;;4.53;;
15385;SDS011;7791;47.246;9.648;2023-09-07T08:56:51;7.07;;;4.25;;
15385;SDS011;7791;47.246;9.648;2023-09-07T08:59:16;5.85;;;4.75;;
15385;SDS011;7791;47.246;9.648;2023-09-07T09:01:43;6.80;;;4.35;;
15385;SDS011;7791;47.246;9.648;2023-09-07T09:04:10;7.80;;;4.90;;
15385;SDS011;7791;47.246;9.648;2023-09-07T09:06:35;7.22;;;4.40;;
15385;SDS011;7791;47.246;9.648;2023-09-07T09:09:01;5.78;;;4.20;;
15385;SDS011;7791;47.246;9.648;2023-09-07T09:11:27;6.32;;;4.45;;
15385;SDS011;7791;47.246;9.648;2023-09-07T09:13:53;8.00;;;4.95;;
15385;SDS011;7791;47.246;9.648;2023-09-07T09:16:19;7.47;;;4.72;;
15385;SDS011;7791;47.246;9.648;2023-09-07T09:18:48;8.68;;;5.38;;
15385;SDS011;7791;47.246;9.648;2023-09-07T09:21:16;8.65;;;4.95;;
15385;SDS011;7791;47.246;9.648;2023-09-07T09:23:43;7.40;;;4.43;;
15385;SDS011;7791;47.246;9.648;2023-09-07T09:26:08;6.53;;;5.00;;
15385;SDS011;7791;47.246;9.648;2023-09-07T09:28:34;7.40;;;4.70;;
15385;SDS011;7791;47.246;9.648;2023-09-07T09:31:01;7.10;;;4.57;;
15385;SDS011;7791;47.246;9.648;2023-09-07T09:33:27;8.02;;;4.57;;
15385;SDS011;7791;47.246;9.648;2023-09-07T09:35:57;5.53;;;4.15;;
15385;SDS011;7791;47.246;9.648;2023-09-07T09:38:24;6.90;;;4.50;;
15385;SDS011;7791;47.246;9.648;2023-09-07T09:40:50;7.57;;;4.18;;
15385;SDS011;7791;47.246;9.648;2023-09-07T09:43:16;7.75;;;4.80;;
15385;SDS011;7791;47.246;9.648;2023-09-07T09:45:44;6.38;;;4.72;;
15385;SDS011;7791;47.246;9.648;2023-09-07T09:48:10;6.10;;;4.60;;
15385;SDS011;7791;47.246;9.648;2023-09-07T09:50:36;12.75;;;5.30;;
15385;SDS011;7791;47.246;9.648;2023-09-07T09:53:05;5.72;;;4.72;;
15385;SDS011;7791;47.246;9.648;2023-09-07T09:55:32;5.22;;;4.70;;
15385;SDS011;7791;47.246;9.648;2023-09-07T09:57:59;9.73;;;5.15;;
15385;SDS011;7791;47.246;9.648;2023-09-07T10:00:24;8.85;;;5.25;;
15385;SDS011;7791;47.246;9.648;2023-09-07T10:02:51;6.05;;;4.72;;
15385;SDS011;7791;47.246;9.648;2023-09-07T10:05:23;6.28;;;4.72;;
15385;SDS011;7791;47.246;9.648;2023-09-07T10:07:49;5.68;;;4.85;;
15385;SDS011;7791;47.246;9.648;2023-09-07T10:10:15;6.13;;;4.43;;
15385;SDS011;7791;47.246;9.648;2023-09-07T10:12:44;6.88;;;4.88;;
15385;SDS011;7791;47.246;9.648;2023-09-07T10:15:19;7.72;;;4.60;;
15385;SDS011;7791;47.246;9.648;2023-09-07T10:17:46;7.90;;;4.95;;
15385;SDS011;7791;47.246;9.648;2023-09-07T10:20:12;7.38;;;4.70;;
15385;SDS011;7791;47.246;9.648;2023-09-07T10:22:37;10.32;;;5.10;;
15385;SDS011;7791;47.246;9.648;2023-09-07T10:25:03;7.45;;;5.05;;
15385;SDS011;7791;47.246;9.648;2023-09-07T10:27:36;6.30;;;4.45;;
15385;SDS011;7791;47.246;9.648;2023-09-07T10:30:04;5.53;;;5.00;;
15385;SDS011;7791;47.246;9.648;2023-09-07T10:32:37;6.25;;;4.88;;
15385;SDS011;7791;47.246;9.648;2023-09-07T10:35:11;6.35;;;4.88;;
15385;SDS011;7791;47.246;9.648;2023-09-07T10:37:38;7.65;;;5.10;;
15385;SDS011;7791;47.246;9.648;2023-09-07T10:40:06;7.03;;;5.00;;
15385;SDS011;7791;47.246;9.648;2023-09-07T10:42:32;8.93;;;5.88;;
15385;SDS011;7791;47.246;9.648;2023-09-07T10:45:07;8.13;;;5.47;;
15385;SDS011;7791;47.246;9.648;2023-09-07T10:47:35;8.48;;;5.43;;
15385;SDS011;7791;47.246;9.648;2023-09-07T10:50:06;6.97;;;4.75;;
15385;SDS011;7791;47.246;9.648;2023-09-07T10:52:33;6.88;;;5.55;;
15385;SDS011;7791;47.246;9.648;2023-09-07T10:54:59;8.88;;;5.60;;
15385;SDS011;7791;47.246;9.648;2023-09-07T10:57:25;9.00;;;5.95;;
15385;SDS011;7791;47.246;9.648;2023-09-07T10:59:51;7.85;;;5.22;;
15385;SDS011;7791;47.246;9.648;2023-09-07T11:02:19;7.13;;;5.40;;
15385;SDS011;7791;47.246;9.648;2023-09-07T11:04:45;8.90;;;5.80;;
15385;SDS011;7791;47.246;9.648;2023-09-07T11:07:10;6.00;;;5.40;;
15385;SDS011;7791;47.246;9.648;2023-09-07T11:09:39;8.50;;;5.80;;
15385;SDS011;7791;47.246;9.648;2023-09-07T11:12:05;6.60;;;5.10;;
15385;SDS011;7791;47.246;9.648;2023-09-07T11:14:31;8.48;;;5.32;;
15385;SDS011;7791;47.246;9.648;2023-09-07T11:16:57;9.10;;;6.10;;
15385;SDS011;7791;47.246;9.648;2023-09-07T11:19:24;8.63;;;5.30;;
15385;SDS011;7791;47.246;9.648;2023-09-07T11:21:52;16.58;;;6.25;;
15385;SDS011;7791;47.246;9.648;2023-09-07T11:24:18;12.35;;;5.93;;
15385;SDS011;7791;47.246;9.648;2023-09-07T11:26:45;11.32;;;6.35;;
15385;SDS011;7791;47.246;9.648;2023-09-07T11:29:13;9.35;;;6.45;;
15385;SDS011;7791;47.246;9.648;2023-09-07T11:31:39;10.77;;;6.53;;
15385;SDS011;7791;47.246;9.648;2023-09-07T11:34:08;9.38;;;6.57;;
15385;SDS011;7791;47.246;9.648;2023-09-07T11:36:35;6.70;;;5.63;;
15385;SDS011;7791;47.246;9.648;2023-09-07T11:39:01;5.90;;;5.03;;
15385;SDS011;7791;47.246;9.648;2023-09-07T11:41:27;6.13;;;5.22;;
15385;SDS011;7791;47.246;9.648;2023-09-07T11:43:52;8.93;;;5.32;;
15385;SDS011;7791;47.246;9.648;2023-09-07T11:46:18;7.47;;;5.57;;
15385;SDS011;7791;47.246;9.648;2023-09-07T11:48:44;6.30;;;5.28;;
15385;SDS011;7791;47.246;9.648;2023-09-07T11:51:09;9.88;;;5.22;;
15385;SDS011;7791;47.246;9.648;2023-09-07T11:53:37;6.57;;;5.13;;
15385;SDS011;7791;47.246;9.648;2023-09-07T11:56:03;6.90;;;5.43;;
15385;SDS011;7791;47.246;9.648;2023-09-07T11:58:28;9.13;;;5.93;;
15385;SDS011;7791;47.246;9.648;2023-09-07T12:03:44;8.55;;;4.97;;
15385;SDS011;7791;47.246;9.648;2023-09-07T12:06:10;5.93;;;4.70;;
15385;SDS011;7791;47.246;9.648;2023-09-07T12:08:37;7.22;;;4.40;;
15385;SDS011;7791;47.246;9.648;2023-09-07T12:11:03;6.25;;;4.47;;
15385;SDS011;7791;47.246;9.648;2023-09-07T12:13:28;7.78;;;4.68;;
15385;SDS011;7791;47.246;9.648;2023-09-07T12:15:54;8.40;;;4.88;;
15385;SDS011;7791;47.246;9.648;2023-09-07T12:18:20;7.53;;;4.32;;
15385;SDS011;7791;47.246;9.648;2023-09-07T12:20:47;7.82;;;4.45;;
15385;SDS011;7791;47.246;9.648;2023-09-07T12:23:12;5.43;;;4.20;;
15385;SDS011;7791;47.246;9.648;2023-09-07T12:25:39;5.28;;;4.50;;
15385;SDS011;7791;47.246;9.648;2023-09-07T12:28:05;5.35;;;4.57;;
15385;SDS011;7791;47.246;9.648;2023-09-07T12:30:31;5.18;;;4.53;;
15385;SDS011;7791;47.246;9.648;2023-09-07T12:32:56;8.60;;;4.32;;
15385;SDS011;7791;47.246;9.648;2023-09-07T12:35:22;6.65;;;4.82;;
15385;SDS011;7791;47.246;9.648;2023-09-07T12:37:48;4.93;;;4.53;;
15385;SDS011;7791;47.246;9.648;2023-09-07T12:40:14;7.90;;;5.05;;
15385;SDS011;7791;47.246;9.648;2023-09-07T12:42:41;7.80;;;4.75;;
15385;SDS011;7791;47.246;9.648;2023-09-07T12:45:09;5.72;;;4.80;;
15385;SDS011;7791;47.246;9.648;2023-09-07T12:47:35;8.55;;;5.00;;
15385;SDS011;7791;47.246;9.648;2023-09-07T12:50:01;5.40;;;4.90;;
15385;SDS011;7791;47.246;9.648;2023-09-07T12:52:27;8.75;;;4.82;;
15385;SDS011;7791;47.246;9.648;2023-09-07T12:54:52;6.05;;;5.15;;
15385;SDS011;7791;47.246;9.648;2023-09-07T12:57:18;7.85;;;4.63;;
15385;SDS011;7791;47.246;9.648;2023-09-07T12:59:45;9.73;;;5.00;;
15385;SDS011;7791;47.246;9.648;2023-09-07T13:02:11;5.03;;;4.53;;
15385;SDS011;7791;47.246;9.648;2023-09-07T13:04:37;6.28;;;4.68;;
15385;SDS011;7791;47.246;9.648;2023-09-07T13:07:02;5.45;;;4.63;;
15385;SDS011;7791;47.246;9.648;2023-09-07T13:09:28;5.10;;;4.47;;
15385;SDS011;7791;47.246;9.648;2023-09-07T13:11:54;5.28;;;4.25;;
15385;SDS011;7791;47.246;9.648;2023-09-07T13:14:20;6.65;;;4.88;;
15385;SDS011;7791;47.246;9.648;2023-09-07T13:16:47;5.88;;;4.40;;
15385;SDS011;7791;47.246;9.648;2023-09-07T13:19:12;9.77;;;4.60;;
15385;SDS011;7791;47.246;9.648;2023-09-07T13:21:38;5.80;;;4.43;;
15385;SDS011;7791;47.246;9.648;2023-09-07T13:24:04;7.32;;;4.63;;
15385;SDS011;7791;47.246;9.648;2023-09-07T13:26:30;6.03;;;4.43;;
15385;SDS011;7791;47.246;9.648;2023-09-07T13:28:55;4.85;;;4.22;;
15385;SDS011;7791;47.246;9.648;2023-09-07T13:31:21;6.88;;;4.82;;
15385;SDS011;7791;47.246;9.648;2023-09-07T13:33:48;7.35;;;4.35;;
15385;SDS011;7791;47.246;9.648;2023-09-07T13:36:14;5.55;;;4.13;;
15385;SDS011;7791;47.246;9.648;2023-09-07T13:38:40;5.20;;;4.53;;
15385;SDS011;7791;47.246;9.648;2023-09-07T13:41:05;6.20;;;4.20;;
15385;SDS011;7791;47.246;9.648;2023-09-07T13:43:31;4.22;;;3.80;;
15385;SDS011;7791;47.246;9.648;2023-09-07T13:45:57;5.80;;;4.60;;
15385;SDS011;7791;47.246;9.648;2023-09-07T13:48:22;4.63;;;4.03;;
15385;SDS011;7791;47.246;9.648;2023-09-07T13:50:49;5.40;;;4.40;;
15385;SDS011;7791;47.246;9.648;2023-09-07T13:53:15;4.88;;;4.38;;
15385;SDS011;7791;47.246;9.648;2023-09-07T13:55:41;8.20;;;4.25;;
15385;SDS011;7791;47.246;9.648;2023-09-07T13:58:07;5.20;;;4.53;;
15385;SDS011;7791;47.246;9.648;2023-09-07T14:00:32;5.53;;;4.55;;
15385;SDS011;7791;47.246;9.648;2023-09-07T14:02:58;6.65;;;4.95;;
15385;SDS011;7791;47.246;9.648;2023-09-07T14:05:24;7.75;;;4.63;;
15385;SDS011;7791;47.246;9.648;2023-09-07T14:07:51;5.82;;;4.95;;
15385;SDS011;7791;47.246;9.648;2023-09-07T14:10:16;7.40;;;5.18;;
15385;SDS011;7791;47.246;9.648;2023-09-07T14:12:42;7.07;;;4.80;;
15385;SDS011;7791;47.246;9.648;2023-09-07T14:15:08;6.78;;;4.63;;
15385;SDS011;7791;47.246;9.648;2023-09-07T14:17:34;5.18;;;4.68;;
15385;SDS011;7791;47.246;9.648;2023-09-07T14:20:00;7.75;;;5.32;;
15385;SDS011;7791;47.246;9.648;2023-09-07T14:22:25;7.95;;;4.82;;
15385;SDS011;7791;47.246;9.648;2023-09-07T14:24:53;8.43;;;5.10;;
15385;SDS011;7791;47.246;9.648;2023-09-07T14:27:18;7.40;;;5.22;;
15385;SDS011;7791;47.246;9.648;2023-09-07T14:29:44;7.25;;;5.53;;
15385;SDS011;7791;47.246;9.648;2023-09-07T14:32:10;10.82;;;5.97;;
15385;SDS011;7791;47.246;9.648;2023-09-07T14:34:36;6.07;;;5.00;;
15385;SDS011;7791;47.246;9.648;2023-09-07T14:37:01;7.90;;;5.72;;
15385;SDS011;7791;47.246;9.648;2023-09-07T14:39:27;6.57;;;5.32;;
15385;SDS011;7791;47.246;9.648;2023-09-07T14:41:54;7.45;;;5.15;;
15385;SDS011;7791;47.246;9.648;2023-09-07T14:44:20;9.48;;;5.97;;
15385;SDS011;7791;47.246;9.648;2023-09-07T14:46:47;10.10;;;5.65;;
15385;SDS011;7791;47.246;9.648;2023-09-07T14:49:13;7.65;;;5.65;;